Meteo Giornale » Osservazioni meteo Repubblica Ceca » Praha-Ruzyne

ore: 03:46 - Osservazioni Meteo Praha-Ruzyne
Lat. 50° 6' N Lon. 14° 15' E Alt. 365 metri s.l.m.

nebbia Europe/Prague

8 °C

Nebbia

Temp. 24 Ore

7 °C

22 °C

Nord

0 Km/h

Dew point 8 °C

Umidità 100 %

Visibilità  0.15 Km

Il sole sorge alle ore 07:29

Il sole tramonta alle ore 18:06

Data e Ora Cielo e Fenomeni T °C DP °C Um. % Pres. hPa Vis. km Vento km/h
Oggi h: 03:46 nebbia Nebbia 8 8 100 1018 0.15 N 0
Oggi h: 03:30 nebbia Nebbia 7 7 100 1018 0.2 N 0
Oggi h: 03:08 nebbia Nebbia 8 7 93 1019 0.2 N 1.8
Oggi h: 03:00 nebbia Nebbia 7 7 100 1019 0.2 N 3.7
Oggi h: 02:54 nebbia Nebbia 7 7 100 1019 0.2 N 3.7
Oggi h: 02:48 nebbia Nebbia 8 7 93 1019 0.2 N 3.7
Oggi h: 02:41 nebbia Nebbia 8 8 100 1019 0.2 N 1.8
Oggi h: 02:33 nebbia Nebbia 9 8 93 1019 0.3 N 0
Oggi h: 02:30 nebbia NebbiaParziale 8 8 100 1019 0.3 N 0
Oggi h: 02:19 nebbia NebbiaParziale 8 8 100 1019 0.3 N 0
Oggi h: 02:17 nebbia Nebbia 8 8 100 1019 0.3 N 1.8
Oggi h: 02:00 nebbia Nebbia 10 9 93 1019 0.3 N 1.8
Oggi h: 01:30 nebbia Banco di Nebbia Foschia 10 9 93 1019 0.5 N 0
Oggi h: 01:24 nebbia Banco di Nebbia Foschia 9 9 100 1019 0.6 N 0
Oggi h: 01:00 nebbia Banco di Nebbia Foschia 10 10 100 1019 1 N 1.8
Oggi h: 00:30 nebbia Nebbia a Strati Foschia 9 9 100 1019 4 N 5.5
Oggi h: 00:00 nebbia Nebbia a Strati Foschia 11 11 100 1020 5 N 1.8
Ieri h: 23:30 nebbia Nebbia a Strati 11 10 93 1020 6 N 3.7
Ieri h: 23:11 nebbia Nebbia a Strati 12 11 93 1020 6 N 1.8
Ieri h: 23:00 sereno Sereno 12 11 93 1020 8 N 0
Ieri h: 22:30 sereno Sereno 12 11 93 1020 9 N 1.8
Ieri h: 22:00 sereno Sereno 12 11 93 1020 10 N 5.5
Ieri h: 21:30 sereno Sereno 12 11 93 1020 10 N/NO 9.3
Ieri h: 21:00 sereno Sereno 13 11 87 1020 10 N 5.5
Ieri h: 20:30 sereno Sereno 14 12 87 1021 10 N 5.5
Ieri h: 20:00 sereno Sereno 13 11 87 1021 10 N 5.5
Ieri h: 19:30 sereno Sereno 16 12 77 1021 10 N 5.5
Ieri h: 19:00 sereno Sereno 16 12 77 1021 10 E/SE 7.4
Ieri h: 18:30 sereno Sereno 16 12 77 1021 10 N 5.5
Ieri h: 18:00 sereno Sereno 17 12 72 1021 10 E 9.3
Ieri h: 17:30 sereno Sereno 18 13 72 1021 10 E 11.1
Ieri h: 17:00 sereno Sereno 20 13 64 1021 10 E 11.1
Ieri h: 16:30 sereno Sereno 21 12 56 1022 10 E/SE 9.3
Ieri h: 16:00 sereno Sereno 22 10 46 1022 10 E/SE 9.3
Ieri h: 15:30 sereno Sereno 22 9 43 1022 10 E 9.3
Ieri h: 15:00 sereno Sereno 22 11 49 1023 10 E 9.3
Ieri h: 14:30 sereno Sereno 22 9 43 1023 10 E 7.4
Ieri h: 14:00 sereno Sereno 22 8 40 1023 10 N 5.5
Ieri h: 13:30 sereno Sereno 22 11 49 1024 10 N 3.7
Ieri h: 13:00 sereno Sereno 21 11 52 1024 10 N 5.5
Ieri h: 12:30 sereno Sereno 20 10 52 1025 10 N 3.7
Ieri h: 12:00 sereno Sereno 19 10 55 1025 10 N 5.5
Ieri h: 11:30 sereno Sereno 18 11 63 1025 10 SO 7.4
Ieri h: 11:00 sereno Sereno 16 11 72 1025 10 SO 9.3
Ieri h: 10:30 sereno Sereno 15 12 82 1025 10 SO 7.4
Ieri h: 10:00 sereno Sereno 14 11 82 1025 10 SO 7.4
Ieri h: 09:30 sereno Sereno 13 10 81 1025 10 N 5.5
Ieri h: 09:00 sereno Sereno 11 10 93 1025 10 N 3.7
Ieri h: 08:30 sereno Sereno 10 9 93 1025 10 SO 9.3
Ieri h: 08:00 sereno Sereno 10 9 93 1025 10 S/SO 7.4
Ieri h: 07:30 sereno Sereno 10 9 93 1025 10 N 5.5
Ieri h: 07:00 sereno Sereno 10 9 93 1025 10 N 5.5
Ieri h: 06:30 sereno Sereno 10 8 87 1025 10 SE 7.4
Ieri h: 06:00 sereno Sereno 10 9 93 1025 10 N 3.7
Ieri h: 05:30 sereno Sereno 11 10 93 1025 10 N 3.7
Ieri h: 05:00 sereno Sereno 10 8 87 1025 10 N 1.8